If you wish to contribute or participate in the discussions about articles you are invited to join SKYbrary as a registered user

 Actions

Dole-Tavaux Airport

From SKYbrary Wiki

LFGJ
Airport
ICAO: LFGJ – IATA: DLE
Summary
Name Dole-Tavaux Airport
Region Europe
Territory France FR.gif
Location , Franche-Comte
Serving Dole
Elevation 196.596 m
645 ft
645 ft196.596 m
Type medium airport
Coordinates 47° 2' 20.45" N, 5° 25' 38.10" E
Runways
Designator Length Width Surface ROPS
5/23 2231 m7,319.554 ft
45 m147.638 ft
ASP yes/yes


METAR
Observation LFGJ 111030Z AUTO 01013KT 9000 NSC 12/06 Q1015 NOSIG
Station Dole Tavaux
Date/Time 11 April 2019 10:30:00
Wind direction 10°
Wind speed 13 kts
Lowest cloud amount nil significant cloud
Temperature 12°C
Dew point 6°C
Humidity 66%
QNH 1015 hPa
Weather condition n/a